Time;durP1;ratioP1;P1;durP2;ratioP2;P2;SDS_P1;SDS_P2;PMS_P1;PMS_P2;Temp;Humidity;BMP_temperature;BMP_pressure;BME280_temperature;BME280_humidity;BME280_pressure;Samples;Min_cycle;Max_cycle;Signal;HPM_P1;HPM_P2
2021/07/15 00:04:16;;;;;;;1.20;1.20;;;;;;;16.45;76.28;95903.31;5138741;57;20139;-74
2021/07/15 00:09:20;;;;;;;3.42;0.80;;;;;;;16.54;76.05;95905.84;5138499;57;20170;-74
2021/07/15 00:14:23;;;;;;;1.38;1.00;;;;;;;16.48;76.20;95913.44;5132740;57;20147;-74
2021/07/15 00:19:27;;;;;;;0.90;0.90;;;;;;;16.45;76.83;95906.09;5141430;57;20126;-74
2021/07/15 00:24:29;;;;;;;0.70;0.70;;;;;;;16.52;76.31;95902.81;5132947;57;20220;-74
2021/07/15 00:29:32;;;;;;;0.70;0.70;;;;;;;16.52;76.53;95899.25;5141474;57;20850;-74
2021/07/15 00:34:34;;;;;;;0.60;0.60;;;;;;;16.58;77.07;95900.00;5141548;57;20130;-74
2021/07/15 00:39:37;;;;;;;0.60;0.60;;;;;;;16.64;76.67;95893.13;5132656;57;20144;-74
2021/07/15 00:44:39;;;;;;;0.60;0.60;;;;;;;16.59;77.57;95891.13;5141303;57;20675;-74
2021/07/15 00:49:41;;;;;;;0.70;0.70;;;;;;;16.63;77.56;95891.59;5141367;57;20687;-74
2021/07/15 00:54:44;;;;;;;0.93;0.80;;;;;;;16.65;77.19;95900.22;5141410;57;20235;-75
2021/07/15 00:59:48;;;;;;;0.52;0.52;;;;;;;16.72;76.85;95896.13;5132516;57;20152;-74
2021/07/15 01:04:51;;;;;;;0.70;0.70;;;;;;;16.75;76.49;95903.50;5141325;57;20126;-74
2021/07/15 01:09:54;;;;;;;0.70;0.70;;;;;;;16.61;78.04;95887.81;5141307;57;20130;-74
2021/07/15 01:15:01;;;;;;;0.60;0.60;;;;;;;16.66;77.48;95885.00;5140709;57;20134;-75
2021/07/15 01:20:12;;;;;;;0.50;0.50;;;;;;;16.68;76.91;95890.84;5141048;57;20174;-75
2021/07/15 01:25:33;;;;;;;1.40;0.63;;;;;;;16.71;76.57;95878.66;5140797;57;20144;-74
2021/07/15 01:30:47;;;;;;;0.60;0.60;;;;;;;16.63;76.89;95891.59;5141049;57;20117;-75
2021/07/15 01:35:56;;;;;;;0.65;0.65;;;;;;;16.70;76.92;95893.88;5131800;57;20144;-74
2021/07/15 01:41:09;;;;;;;;;;;;;;;16.74;77.68;95894.34;5140903;57;20253;-74
2021/07/15 01:46:14;;;;;;;0.43;0.43;;;;;;;16.59;79.43;95891.13;5140574;57;19982;-74
2021/07/15 01:51:17;;;;;;;0.52;0.52;;;;;;;16.48;80.35;95879.97;5140348;57;20196;-74
2021/07/15 01:56:21;;;;;;;0.38;0.38;;;;;;;16.49;81.29;95881.47;5140242;57;20117;-74
2021/07/15 02:01:24;;;;;;;0.40;0.40;;;;;;;16.46;81.27;95882.53;5131655;57;20264;-73
2021/07/15 02:06:28;;;;;;;0.40;0.40;;;;;;;16.34;82.34;95879.00;5140129;57;20130;-74
2021/07/15 02:11:33;;;;;;;0.43;0.43;;;;;;;16.33;81.46;95879.50;5140081;57;20241;-73
2021/07/15 02:16:39;;;;;;;0.60;0.60;;;;;;;16.41;81.52;95875.69;5139860;57;20140;-73
2021/07/15 02:21:42;;;;;;;2.28;0.60;;;;;;;16.21;82.77;95876.00;5140043;57;20675;-73
2021/07/15 02:26:45;;;;;;;0.30;0.30;;;;;;;16.21;83.00;95880.81;5139771;57;20126;-74
2021/07/15 02:31:58;;;;;;;0.50;0.50;;;;;;;16.19;83.23;95880.56;5139775;57;20117;-74
2021/07/15 02:37:00;;;;;;;0.50;0.50;;;;;;;16.04;83.80;95880.06;5130756;57;20144;-74
2021/07/15 02:42:03;;;;;;;0.45;0.45;;;;;;;16.04;84.41;95874.47;5139694;57;20697;-73
2021/07/15 02:47:07;;;;;;;0.40;0.40;;;;;;;16.19;83.34;95872.94;5139903;57;20228;-73
2021/07/15 02:52:11;;;;;;;2.03;0.60;;;;;;;15.99;83.66;95862.06;5139582;57;20122;-74
2021/07/15 02:57:31;;;;;;;0.40;0.40;;;;;;;16.12;82.97;95873.47;5130702;57;20685;-74
2021/07/15 03:02:48;;;;;;;0.60;0.60;;;;;;;15.95;83.08;95883.88;5139468;57;20122;-74
2021/07/15 03:08:04;;;;;;;0.40;0.40;;;;;;;15.71;84.32;95864.16;5139304;57;20140;-74
2021/07/15 03:13:09;;;;;;;0.40;0.40;;;;;;;15.58;84.21;95867.41;5139449;57;20690;-74
2021/07/15 03:18:17;;;;;;;0.60;0.60;;;;;;;15.73;82.70;95884.66;5139064;57;20130;-74
2021/07/15 03:23:23;;;;;;;0.57;0.57;;;;;;;15.66;81.92;95876.03;5139405;57;20117;-74
2021/07/15 03:28:29;;;;;;;0.60;0.60;;;;;;;15.71;81.82;95878.06;5130654;57;20148;-74
2021/07/15 03:33:35;;;;;;;0.55;0.55;;;;;;;15.74;82.77;95875.03;5155585;57;20248;-74
2021/07/15 03:38:40;;;;;;;0.50;0.50;;;;;;;15.78;82.83;95881.09;5156239;57;20144;-74
2021/07/15 03:43:44;;;;;;;0.55;0.55;;;;;;;15.75;82.88;95887.69;5149937;57;20139;-74
2021/07/15 03:48:47;;;;;;;0.50;0.50;;;;;;;15.75;84.32;95887.69;5147872;57;20492;-74
2021/07/15 03:53:50;;;;;;;0.47;0.47;;;;;;;15.80;84.01;95894.53;5151396;57;20128;-74
2021/07/15 03:58:55;;;;;;;0.50;0.45;;;;;;;15.87;83.64;95898.84;5143560;57;20126;-74
2021/07/15 04:04:00;;;;;;;0.50;0.50;;;;;;;15.96;83.54;95904.16;5154007;57;20148;-74
2021/07/15 04:09:07;;;;;;;0.25;0.25;;;;;;;16.16;81.69;95904.63;5154521;57;20177;-75
2021/07/15 04:14:17;;;;;;;0.40;0.40;;;;;;;16.13;82.66;95902.09;5154605;57;20135;-74
2021/07/15 04:19:21;;;;;;;5.30;0.55;;;;;;;16.08;83.07;95900.81;5152623;57;20702;-74
2021/07/15 04:24:24;;;;;;;1.55;1.05;;;;;;;16.01;83.63;95904.13;5151940;57;20150;-74
2021/07/15 04:29:29;;;;;;;0.32;0.32;;;;;;;16.21;82.54;95906.66;5154632;57;20140;-74
2021/07/15 04:34:36;;;;;;;0.50;0.50;;;;;;;16.48;82.01;95905.84;5157836;57;20136;-74
2021/07/15 04:39:39;;;;;;;0.50;0.50;;;;;;;16.87;80.57;95905.72;5155088;57;20139;-74
2021/07/15 04:44:44;;;;;;;0.43;0.43;;;;;;;17.36;79.95;95917.16;5149277;57;20122;-75
2021/07/15 04:49:47;;;;;;;0.40;0.40;;;;;;;17.43;78.78;95919.41;5144988;57;20131;-74
2021/07/15 04:54:51;;;;;;;0.32;0.32;;;;;;;17.45;79.05;95920.41;5146811;57;20152;-74
2021/07/15 04:59:54;;;;;;;1.33;0.55;;;;;;;17.74;76.03;95910.56;5159008;57;20139;-74
2021/07/15 05:04:56;;;;;;;1.13;0.30;;;;;;;18.04;73.18;95907.78;5173678;57;20120;-74
2021/07/15 05:09:58;;;;;;;0.63;0.63;;;;;;;18.09;73.08;95898.59;5179613;57;20138;-74
2021/07/15 05:15:11;;;;;;;0.40;0.40;;;;;;;18.14;73.56;95897.78;5178801;57;20177;-75
2021/07/15 05:20:13;;;;;;;0.85;0.50;;;;;;;18.02;73.39;95897.13;5178091;57;20130;-74
2021/07/15 05:25:15;;;;;;;0.60;0.60;;;;;;;18.09;73.96;95895.81;5170011;57;20134;-74
2021/07/15 05:30:18;;;;;;;0.60;0.60;;;;;;;18.44;72.22;95899.25;5169055;57;20116;-74
2021/07/15 05:35:21;;;;;;;0.40;0.40;;;;;;;18.88;71.87;95902.88;5159297;57;20116;-74
2021/07/15 05:40:23;;;;;;;1.75;0.57;;;;;;;18.92;71.10;95906.13;5170198;57;20129;-74
2021/07/15 05:45:26;;;;;;;4.57;0.60;;;;;;;18.88;70.73;95905.69;5169043;57;20125;-74
2021/07/15 05:50:28;;;;;;;3.15;0.65;;;;;;;19.04;70.36;95896.31;5161297;57;20112;-74
2021/07/15 05:55:30;;;;;;;0.60;0.60;;;;;;;18.75;69.65;95897.91;5169021;57;20116;-74
2021/07/15 06:00:33;;;;;;;2.50;0.40;;;;;;;18.79;68.47;95890.00;5169141;57;20125;-74
2021/07/15 06:05:36;;;;;;;0.40;0.40;;;;;;;18.77;70.91;95894.63;5170421;57;20165;-73
2021/07/15 06:10:38;;;;;;;1.85;0.70;;;;;;;18.39;71.32;95904.91;5171753;57;20125;-73
2021/07/15 06:15:41;;;;;;;0.43;0.43;;;;;;;18.55;70.77;95896.38;5172521;57;20134;-73
2021/07/15 06:20:43;;;;;;;2.15;0.70;;;;;;;18.60;69.71;95901.16;5169912;57;20598;-72
2021/07/15 06:25:45;;;;;;;0.52;0.52;;;;;;;18.51;70.37;95895.91;5170873;57;20143;-73
2021/07/15 06:30:48;;;;;;;0.60;0.60;;;;;;;18.80;67.90;95899.13;5171851;57;20549;-74
2021/07/15 06:35:52;;;;;;;0.50;0.50;;;;;;;19.09;66.43;95887.06;5167216;57;20658;-74
2021/07/15 06:40:59;;;;;;;0.60;0.60;;;;;;;20.06;63.80;95881.06;5172664;57;20490;-74
2021/07/15 06:46:02;;;;;;;0.60;0.60;;;;;;;19.77;65.39;95875.16;5170625;57;20138;-74
2021/07/15 06:51:04;;;;;;;0.77;0.77;;;;;;;19.63;63.11;95881.25;5171686;57;20281;-73
2021/07/15 06:56:07;;;;;;;0.77;0.77;;;;;;;19.57;63.58;95878.53;5171923;57;20129;-74
2021/07/15 07:01:09;;;;;;;1.92;0.50;;;;;;;19.41;63.81;95879.53;5171394;57;20143;-74
2021/07/15 07:06:12;;;;;;;0.98;0.70;;;;;;;20.45;62.31;95878.31;5169181;57;20134;-76
2021/07/15 07:11:14;;;;;;;0.77;0.77;;;;;;;21.35;57.93;95890.06;5167920;57;20134;-74
2021/07/15 07:16:17;;;;;;;2.15;0.60;;;;;;;22.10;56.63;95890.09;5152753;57;20120;-74
2021/07/15 07:21:20;;;;;;;1.25;0.60;;;;;;;22.32;53.89;95886.00;5162675;57;20672;-74
2021/07/15 07:26:22;;;;;;;2.15;0.50;;;;;;;21.91;59.01;95895.19;5166287;57;20120;-74
2021/07/15 07:31:27;;;;;;;0.70;0.70;;;;;;;22.02;56.19;95898.50;5168851;57;20120;-73
2021/07/15 07:36:30;;;;;;;0.60;0.60;;;;;;;22.02;57.10;95895.69;5171437;57;20138;-74
2021/07/15 07:41:32;;;;;;;0.60;0.60;;;;;;;21.72;60.61;95905.84;5169082;57;20546;-74
2021/07/15 07:46:35;;;;;;;1.35;0.68;;;;;;;22.01;56.27;95887.78;5169359;57;20130;-74
2021/07/15 07:51:38;;;;;;;0.60;0.60;;;;;;;22.13;54.33;95900.28;5168058;57;20560;-74
2021/07/15 07:56:40;;;;;;;0.60;0.60;;;;;;;22.38;54.79;95898.63;5168393;57;20124;-74
2021/07/15 08:01:42;;;;;;;1.48;0.52;;;;;;;21.99;59.69;95907.25;5169733;57;20581;-74
2021/07/15 08:06:47;;;;;;;0.73;0.73;;;;;;;22.42;57.88;95906.69;5168793;57;20580;-73
2021/07/15 08:11:51;;;;;;;1.08;0.70;;;;;;;21.74;58.01;95908.84;5168604;57;20138;-74
2021/07/15 08:16:53;;;;;;;1.38;0.80;;;;;;;22.05;58.84;95910.69;5169144;57;20125;-74
2021/07/15 08:21:57;;;;;;;0.60;0.60;;;;;;;22.05;58.67;95911.44;5169730;57;20121;-74
2021/07/15 08:26:59;;;;;;;2.05;0.63;;;;;;;22.04;58.38;95912.00;5175691;57;20239;-73
2021/07/15 08:32:02;;;;;;;0.60;0.60;;;;;;;22.47;59.05;95917.81;5173835;57;20668;-74
2021/07/15 08:37:05;;;;;;;1.20;0.60;;;;;;;23.13;55.40;95925.81;5176752;57;20134;-74
2021/07/15 08:42:09;;;;;;;0.80;0.73;;;;;;;22.18;58.14;95919.09;5175947;57;20133;-74
2021/07/15 08:47:14;;;;;;;3.03;0.68;;;;;;;21.53;60.88;95922.13;5175236;57;20126;-74
2021/07/15 08:52:17;;;;;;;0.85;0.85;;;;;;;20.17;65.95;95917.34;5175230;57;20136;-73
2021/07/15 08:57:19;;;;;;;0.60;0.60;;;;;;;19.62;69.85;95944.19;5168412;57;20117;-73
2021/07/15 09:02:23;;;;;;;0.80;0.80;;;;;;;18.52;80.10;95941.44;5168423;57;20170;-72
2021/07/15 09:07:26;;;;;;;1.02;0.98;;;;;;;18.10;82.49;95953.22;5174896;57;20121;-73
2021/07/15 09:12:29;;;;;;;1.52;1.00;;;;;;;17.97;83.07;95941.91;5170638;57;20126;-72
2021/07/15 09:17:35;;;;;;;0.93;0.80;;;;;;;18.42;80.81;95949.41;5171484;57;20586;-73
2021/07/15 09:22:59;;;;;;;0.68;0.68;;;;;;;18.86;78.12;95953.03;5171077;57;20218;-72
2021/07/15 09:28:03;;;;;;;0.75;0.75;;;;;;;19.02;76.05;95957.69;5165743;57;20130;-72
2021/07/15 09:33:09;;;;;;;0.40;0.40;;;;;;;19.01;74.33;95961.78;5171529;57;20125;-72
2021/07/15 09:38:20;;;;;;;0.55;0.55;;;;;;;19.44;74.34;95956.94;5169895;57;20125;-72
2021/07/15 09:43:28;;;;;;;1.08;0.55;;;;;;;19.44;73.33;95950.56;5168548;57;20134;-72
2021/07/15 09:48:31;;;;;;;0.85;0.60;;;;;;;20.09;72.93;95952.91;5173237;57;20121;-73
2021/07/15 09:53:34;;;;;;;0.60;0.60;;;;;;;19.66;71.45;95961.47;5171378;57;20130;-73
2021/07/15 09:58:41;;;;;;;1.13;0.70;;;;;;;19.39;72.48;95951.38;5173822;57;20585;-73
2021/07/15 10:03:46;;;;;;;0.68;0.68;;;;;;;19.07;73.26;95962.47;5171825;57;20133;-73
2021/07/15 10:08:55;;;;;;;0.60;0.60;;;;;;;19.27;74.73;95961.94;5174505;57;20121;-73
2021/07/15 10:14:05;;;;;;;;;;;;;;;19.17;73.93;95963.63;5158259;57;20112;-73
2021/07/15 10:19:18;;;;;;;0.75;0.75;;;;;;;19.08;73.87;95970.34;5162072;57;19985;-74
2021/07/15 10:24:22;;;;;;;3.47;0.52;;;;;;;19.08;75.28;95975.19;5164367;57;20129;-73
2021/07/15 10:29:25;;;;;;;0.35;0.35;;;;;;;18.60;72.44;95982.31;5172028;57;20125;-73
2021/07/15 10:34:28;;;;;;;0.65;0.60;;;;;;;18.80;72.34;95977.53;5162696;57;20129;-73
2021/07/15 10:39:34;;;;;;;1.00;0.60;;;;;;;19.12;69.27;95962.41;5161513;57;20232;-74
2021/07/15 10:44:39;;;;;;;3.40;0.52;;;;;;;20.01;66.58;95970.34;5161366;57;20116;-74
2021/07/15 10:49:42;;;;;;;1.33;0.60;;;;;;;21.25;63.05;95968.47;5159327;57;20134;-73
2021/07/15 10:54:45;;;;;;;0.30;0.30;;;;;;;21.71;60.20;95969.03;5160177;57;20133;-74
2021/07/15 10:59:48;;;;;;;0.20;0.20;;;;;;;21.94;57.57;95970.81;5165310;57;20137;-74
2021/07/15 11:04:52;;;;;;;1.55;0.30;;;;;;;22.33;59.18;95975.50;5160088;57;20125;-74
2021/07/15 11:10:21;;;;;;;0.20;0.20;;;;;;;22.26;56.79;95969.81;5159963;57;20234;-73
2021/07/15 11:15:45;;;;;;;0.10;0.10;;;;;;;21.58;59.16;95975.44;5158782;57;20125;-75
2021/07/15 11:20:47;;;;;;;0.25;0.25;;;;;;;21.28;60.00;95978.59;5157641;57;20665;-75
2021/07/15 11:25:49;;;;;;;0.30;0.30;;;;;;;20.78;64.80;95980.84;5154264;57;20144;-74
2021/07/15 11:30:56;;;;;;;0.30;0.30;;;;;;;20.72;63.76;95992.16;5150288;57;20175;-73
2021/07/15 11:36:05;;;;;;;0.45;0.20;;;;;;;21.28;64.99;95983.50;5149238;57;20134;-72
2021/07/15 11:41:10;;;;;;;0.40;0.40;;;;;;;21.29;66.30;95988.56;5141686;57;20108;-74
2021/07/15 11:46:18;;;;;;;0.30;0.30;;;;;;;21.11;64.81;95981.00;5144629;57;20130;-75
2021/07/15 11:51:33;;;;;;;0.80;0.40;;;;;;;20.73;68.20;95988.84;5157429;57;20120;-74
2021/07/15 11:56:36;;;;;;;0.25;0.25;;;;;;;21.10;64.39;95981.56;5158047;57;20129;-75
2021/07/15 12:01:38;;;;;;;0.30;0.30;;;;;;;20.62;66.79;95986.25;5155674;57;20178;-74
2021/07/15 12:06:43;;;;;;;2.63;0.50;;;;;;;20.34;67.65;95993.59;5157593;57;20124;-74
2021/07/15 12:11:51;;;;;;;0.30;0.30;;;;;;;21.08;65.78;95989.75;5146655;57;20124;-75
2021/07/15 12:16:55;;;;;;;0.50;0.50;;;;;;;21.55;65.86;95996.22;5150329;57;20168;-74
2021/07/15 12:21:58;;;;;;;0.40;0.40;;;;;;;21.87;61.29;95990.44;5146167;57;20134;-75
2021/07/15 12:27:01;;;;;;;0.57;0.50;;;;;;;22.00;63.51;95996.00;5154289;57;20129;-75
2021/07/15 12:32:03;;;;;;;0.40;0.40;;;;;;;21.75;60.53;95991.94;5150335;57;20570;-75
2021/07/15 12:37:11;;;;;;;0.40;0.40;;;;;;;22.15;61.09;95996.16;5149817;57;20134;-75
2021/07/15 12:42:18;;;;;;;0.50;0.50;;;;;;;22.33;61.15;95983.97;5152278;57;20139;-75
2021/07/15 12:47:21;;;;;;;0.30;0.30;;;;;;;22.00;60.22;95990.38;5151870;57;20113;-76
2021/07/15 12:52:23;;;;;;;0.40;0.35;;;;;;;21.70;59.95;95993.56;5155491;57;20130;-76
2021/07/15 12:57:26;;;;;;;0.40;0.40;;;;;;;21.84;62.58;95991.53;5164214;57;20117;-75
2021/07/15 13:02:30;;;;;;;0.50;0.50;;;;;;;21.13;63.17;95998.06;5147815;57;20657;-75
2021/07/15 13:07:33;;;;;;;0.45;0.45;;;;;;;20.41;65.80;95990.94;5142839;57;20118;-75
2021/07/15 13:18:09;;;;;;;0.38;0.38;;;;;;;21.23;65.49;95989.97;5152135;57;20116;-75
2021/07/15 13:23:12;;;;;;;0.50;0.50;;;;;;;22.80;59.12;95995.84;5147262;57;20130;-75
2021/07/15 13:28:16;;;;;;;0.40;0.40;;;;;;;24.03;59.03;95979.03;5152863;57;20662;-75
2021/07/15 13:33:24;;;;;;;0.55;0.55;;;;;;;24.62;52.88;95974.81;5146291;57;20117;-76
2021/07/15 13:38:28;;;;;;;0.68;0.40;;;;;;;24.52;54.47;95964.63;5147316;57;20122;-75
2021/07/15 13:43:32;;;;;;;0.80;0.65;;;;;;;23.45;55.20;95960.03;5138410;57;20143;-76
2021/07/15 13:48:41;;;;;;;2.58;0.60;;;;;;;25.34;53.05;95963.06;5146142;57;20149;-77
2021/07/15 13:53:43;;;;;;;0.40;0.40;;;;;;;24.56;54.95;95957.28;5156157;57;20138;-77
2021/07/15 13:58:46;;;;;;;0.43;0.43;;;;;;;25.77;51.99;95947.84;5145285;57;20176;-75
2021/07/15 14:03:49;;;;;;;0.65;0.50;;;;;;;25.45;51.24;95954.19;5149520;57;20112;-76
2021/07/15 14:08:59;;;;;;;0.40;0.40;;;;;;;24.89;47.50;95963.91;5155115;57;20130;-75
2021/07/15 14:14:01;;;;;;;0.40;0.40;;;;;;;24.38;53.78;95963.31;5148675;57;20681;-75
2021/07/15 14:19:06;;;;;;;1.20;0.40;;;;;;;23.40;56.67;95969.41;5141430;57;20126;-74
2021/07/15 14:24:09;;;;;;;0.40;0.40;;;;;;;23.54;54.62;95976.44;5138441;57;20139;-75
2021/07/15 14:29:11;;;;;;;0.30;0.30;;;;;;;22.82;56.51;95981.97;5144973;57;20131;-75
2021/07/15 14:34:13;;;;;;;1.35;0.60;;;;;;;22.80;59.88;95981.75;5139655;57;20596;-75
2021/07/15 14:39:16;;;;;;;1.20;0.55;;;;;;;22.16;62.56;95977.22;5139137;57;20113;-75
2021/07/15 14:44:18;;;;;;;0.40;0.40;;;;;;;21.63;59.57;95976.59;5134205;57;20156;-75
2021/07/15 14:49:21;;;;;;;1.48;0.40;;;;;;;21.69;62.73;95974.44;5143476;57;20135;-75
2021/07/15 14:54:24;;;;;;;0.40;0.40;;;;;;;22.06;62.02;95971.31;5139729;57;20135;-74
2021/07/15 14:59:26;;;;;;;0.30;0.30;;;;;;;21.93;59.63;95974.94;5138257;57;20148;-75
2021/07/15 15:04:29;;;;;;;0.40;0.40;;;;;;;22.03;61.68;95978.78;5139059;57;20253;-74
2021/07/15 15:09:31;;;;;;;0.40;0.40;;;;;;;21.87;63.05;95973.56;5150245;57;20107;-74
2021/07/15 15:14:33;;;;;;;0.45;0.45;;;;;;;21.35;63.83;95974.38;5144605;57;20121;-74
2021/07/15 15:19:36;;;;;;;0.50;0.50;;;;;;;22.11;64.79;95978.88;5145015;57;20135;-74
2021/07/15 15:24:39;;;;;;;1.35;0.40;;;;;;;22.36;60.06;95974.44;5136691;57;20782;-74
2021/07/15 15:29:43;;;;;;;0.40;0.40;;;;;;;21.99;61.60;95969.16;5136023;57;20666;-74
2021/07/15 15:34:45;;;;;;;0.55;0.55;;;;;;;21.52;65.31;95974.78;5139060;57;20121;-74
2021/07/15 15:39:48;;;;;;;3.38;0.55;;;;;;;21.11;64.56;95966.94;5140329;57;20936;-74
2021/07/15 15:44:50;;;;;;;0.50;0.50;;;;;;;20.60;67.76;95966.34;5137276;57;20126;-74
2021/07/15 15:49:53;;;;;;;0.47;0.47;;;;;;;20.29;68.98;95978.38;5129309;57;20242;-74
2021/07/15 15:54:55;;;;;;;2.17;0.60;;;;;;;20.31;69.37;95969.44;5138184;57;20113;-74
2021/07/15 15:59:57;;;;;;;0.45;0.45;;;;;;;20.25;70.46;95966.69;5140715;57;20526;-74
2021/07/15 16:05:03;;;;;;;0.40;0.40;;;;;;;20.82;69.44;95961.63;5155552;46;20130;-71
2021/07/15 16:10:08;;;;;;;0.40;0.40;;;;;;;20.94;68.89;95968.56;5147397;57;20126;-73
2021/07/15 16:15:12;;;;;;;0.25;0.25;;;;;;;21.01;69.09;95965.09;5135583;57;20126;-72
2021/07/15 16:20:18;;;;;;;0.63;0.55;;;;;;;21.42;67.97;95957.63;5141986;57;20679;-73
2021/07/15 16:25:21;;;;;;;0.65;0.65;;;;;;;21.79;65.86;95952.97;5137542;57;20703;-74
2021/07/15 16:30:26;;;;;;;0.63;0.63;;;;;;;21.54;66.87;95957.38;5163872;57;20124;-73
2021/07/15 16:35:29;;;;;;;0.50;0.50;;;;;;;21.81;67.39;95967.25;5173197;57;20156;-73
2021/07/15 16:40:32;;;;;;;0.65;0.50;;;;;;;21.56;68.38;95966.03;5158287;57;20120;-73
2021/07/15 16:45:34;;;;;;;0.68;0.68;;;;;;;21.76;67.46;95985.00;5157878;57;20143;-71
2021/07/15 16:50:37;;;;;;;0.63;0.63;;;;;;;21.40;69.23;95979.91;5157783;57;20235;-73
2021/07/15 16:55:39;;;;;;;1.95;0.45;;;;;;;21.63;67.58;95970.97;5160058;57;20156;-73
2021/07/15 17:00:43;;;;;;;0.30;0.30;;;;;;;22.23;64.89;95971.66;5152122;57;20595;-71
2021/07/15 17:05:46;;;;;;;0.40;0.40;;;;;;;22.81;63.39;95979.72;5141844;57;20621;-69
2021/07/15 17:10:50;;;;;;;0.73;0.50;;;;;;;23.08;64.08;95988.72;5142147;57;20122;-71
2021/07/15 17:15:54;;;;;;;0.68;0.60;;;;;;;23.21;64.02;95997.06;5149988;57;20144;-71
2021/07/15 17:20:56;;;;;;;0.95;0.60;;;;;;;23.09;63.55;95993.06;5143656;57;20227;-71
2021/07/15 17:26:02;;;;;;;0.50;0.50;;;;;;;23.13;63.78;96004.72;5141630;57;20671;-70
2021/07/15 17:31:05;;;;;;;1.45;0.60;;;;;;;22.10;66.20;96008.31;5146106;57;20138;-71
2021/07/15 17:36:11;;;;;;;0.70;0.70;;;;;;;21.78;67.81;96000.03;5150122;57;20167;-71
2021/07/15 17:41:14;;;;;;;1.48;0.50;;;;;;;21.87;66.75;96005.22;5156989;57;20128;-71
2021/07/15 17:46:17;;;;;;;0.65;0.60;;;;;;;21.84;67.06;96002.78;5149778;57;20692;-71
2021/07/15 17:51:19;;;;;;;0.95;0.68;;;;;;;21.74;67.47;96015.72;5150046;57;20131;-70
2021/07/15 17:56:22;;;;;;;0.50;0.50;;;;;;;21.42;66.56;96018.69;5152381;57;20701;-70
2021/07/15 18:01:24;;;;;;;0.57;0.57;;;;;;;21.01;70.01;96012.84;5145042;57;20139;-70
2021/07/15 18:06:27;;;;;;;0.60;0.60;;;;;;;20.79;70.95;96010.44;5143081;57;20153;-70
2021/07/15 18:11:30;;;;;;;0.50;0.50;;;;;;;20.73;70.92;96016.91;5141326;57;20134;-70
2021/07/15 18:16:32;;;;;;;0.60;0.60;;;;;;;20.35;71.64;96015.53;5151054;57;20663;-70
2021/07/15 18:21:35;;;;;;;0.60;0.60;;;;;;;20.15;73.02;96024.47;5158929;57;20228;-73
2021/07/15 18:26:37;;;;;;;0.90;0.70;;;;;;;19.93;75.07;96036.78;5158464;57;20617;-71
2021/07/15 18:31:40;;;;;;;0.80;0.60;;;;;;;19.76;75.39;96041.09;5159958;57;20235;-73
2021/07/15 18:36:43;;;;;;;0.57;0.57;;;;;;;19.40;76.97;96042.59;5165969;57;20139;-71
2021/07/15 18:41:46;;;;;;;0.68;0.60;;;;;;;19.28;77.22;96041.91;5172027;57;20134;-72
2021/07/15 18:46:49;;;;;;;2.75;0.75;;;;;;;19.29;76.64;96027.38;5158737;57;20133;-71
2021/07/15 18:51:53;;;;;;;0.98;0.63;;;;;;;19.08;78.31;96056.41;5178440;57;20711;-72
2021/07/15 18:56:56;;;;;;;0.50;0.50;;;;;;;18.95;78.58;96051.44;5159441;57;20164;-73
2021/07/15 19:01:58;;;;;;;0.50;0.50;;;;;;;18.99;78.51;96054.72;5158129;57;20147;-72
2021/07/15 19:07:03;;;;;;;0.60;0.50;;;;;;;18.87;79.14;96060.94;5156527;57;20606;-71
2021/07/15 19:12:06;;;;;;;0.40;0.40;;;;;;;18.71;79.64;96067.44;5158197;57;20138;-70
2021/07/15 19:17:08;;;;;;;0.30;0.30;;;;;;;18.53;80.29;96071.66;5158310;57;20594;-72
2021/07/15 19:22:11;;;;;;;0.38;0.38;;;;;;;18.32;81.40;96079.69;5158566;57;20125;-71
2021/07/15 19:27:14;;;;;;;1.15;0.50;;;;;;;18.18;82.12;96080.78;5157847;57;20670;-74
2021/07/15 19:32:16;;;;;;;0.40;0.40;;;;;;;18.13;82.18;96090.00;5157993;57;20129;-72
2021/07/15 19:37:18;;;;;;;0.47;0.47;;;;;;;18.00;81.45;96100.25;5158295;57;20133;-72
2021/07/15 19:42:21;;;;;;;0.52;0.52;;;;;;;17.96;80.96;96108.88;5156737;57;20125;-72
2021/07/15 19:47:24;;;;;;;0.73;0.60;;;;;;;17.82;81.72;96104.41;5160081;57;20231;-73
2021/07/15 19:52:26;;;;;;;2.33;0.50;;;;;;;17.75;81.88;96113.31;5159444;57;20129;-71
2021/07/15 19:57:28;;;;;;;0.73;0.70;;;;;;;17.45;83.60;96113.16;5159572;57;20116;-72
2021/07/15 20:02:31;;;;;;;0.40;0.40;;;;;;;17.50;83.08;96117.97;5158122;57;20813;-72
2021/07/15 20:07:34;;;;;;;0.57;0.50;;;;;;;17.27;83.74;96121.31;5160690;57;20688;-72
2021/07/15 20:12:36;;;;;;;4.10;0.40;;;;;;;17.12;84.22;96124.38;5156794;57;20130;-73
2021/07/15 20:17:39;;;;;;;0.43;0.43;;;;;;;17.03;84.27;96142.16;5159126;57;20590;-73
2021/07/15 20:22:42;;;;;;;1.23;0.65;;;;;;;17.06;84.55;96137.59;5159137;57;20121;-73
2021/07/15 20:27:48;;;;;;;1.23;0.47;;;;;;;16.84;85.00;96146.00;5159336;57;20125;-72
2021/07/15 20:32:52;;;;;;;0.52;0.50;;;;;;;16.66;85.03;96152.84;5156370;57;20225;-72
2021/07/15 20:37:56;;;;;;;1.15;0.75;;;;;;;16.47;86.13;96168.50;5159728;57;20595;-72
2021/07/15 20:42:59;;;;;;;0.60;0.50;;;;;;;16.34;85.44;96155.06;5153713;57;20612;-72
2021/07/15 20:48:01;;;;;;;0.40;0.40;;;;;;;16.32;85.29;96162.41;5158972;57;20161;-70
2021/07/15 20:53:04;;;;;;;2.50;0.90;;;;;;;16.20;85.61;96177.56;5159375;57;20187;-72
2021/07/15 20:58:07;;;;;;;1.98;0.70;;;;;;;16.41;85.03;96176.13;5158778;57;20116;-72
2021/07/15 21:03:09;;;;;;;0.68;0.68;;;;;;;16.44;84.54;96187.00;5156131;57;20111;-72
2021/07/15 21:08:14;;;;;;;0.90;0.90;;;;;;;16.50;83.05;96184.25;5158127;57;20231;-72
2021/07/15 21:13:16;;;;;;;0.65;0.65;;;;;;;16.48;82.74;96189.56;5156963;57;20120;-72
2021/07/15 21:18:19;;;;;;;2.20;0.73;;;;;;;16.56;82.03;96187.81;5157079;57;20601;-72
2021/07/15 21:23:21;;;;;;;0.60;0.60;;;;;;;16.70;81.15;96181.25;5160316;57;20139;-71
2021/07/15 21:28:23;;;;;;;1.23;0.60;;;;;;;16.66;80.58;96189.13;5161024;57;20130;-71
2021/07/15 21:33:26;;;;;;;0.60;0.60;;;;;;;16.63;81.62;96194.94;5180774;57;20121;-71
2021/07/15 21:38:28;;;;;;;0.88;0.88;;;;;;;16.56;82.75;96196.19;5181487;57;20125;-71
2021/07/15 21:43:31;;;;;;;4.10;0.60;;;;;;;16.60;82.57;96198.75;5161274;57;20142;-71
2021/07/15 21:48:33;;;;;;;0.82;0.73;;;;;;;16.65;82.60;96203.56;5160331;57;20129;-72
2021/07/15 21:53:35;;;;;;;0.60;0.60;;;;;;;16.63;82.66;96200.50;5169166;57;20117;-72
2021/07/15 21:58:38;;;;;;;0.65;0.50;;;;;;;16.63;82.49;96212.44;5160834;57;20120;-72
2021/07/15 22:03:40;;;;;;;1.02;0.75;;;;;;;16.71;82.27;96213.47;5161354;57;20125;-72
2021/07/15 22:08:43;;;;;;;0.88;0.65;;;;;;;16.61;82.74;96212.19;5158008;57;20116;-71
2021/07/15 22:13:47;;;;;;;3.42;0.70;;;;;;;16.63;82.50;96211.66;5159468;57;20138;-71
2021/07/15 22:18:50;;;;;;;0.40;0.40;;;;;;;16.57;82.16;96206.09;5157102;57;20125;-71
2021/07/15 22:23:53;;;;;;;1.30;0.55;;;;;;;16.54;82.64;96204.31;5158947;57;20129;-72
2021/07/15 22:28:55;;;;;;;2.25;0.80;;;;;;;16.46;82.75;96206.03;5159634;57;20116;-72
2021/07/15 22:33:58;;;;;;;0.65;0.43;;;;;;;16.46;82.95;96195.63;5159573;57;20134;-72
2021/07/15 22:39:00;;;;;;;0.60;0.60;;;;;;;16.38;83.79;96205.00;5158074;57;20139;-71
2021/07/15 22:44:03;;;;;;;0.70;0.70;;;;;;;16.32;83.49;96207.78;5156361;57;20124;-72
2021/07/15 22:49:06;;;;;;;0.40;0.40;;;;;;;16.44;83.49;96208.59;5159221;57;20152;-72
2021/07/15 22:54:09;;;;;;;0.50;0.50;;;;;;;16.35;83.73;96208.81;5157247;57;20134;-75
2021/07/15 22:59:12;;;;;;;0.43;0.43;;;;;;;16.32;84.00;96196.63;5157304;57;20134;-71
2021/07/15 23:04:14;;;;;;;0.73;0.70;;;;;;;16.33;83.74;96202.94;5158701;57;20121;-72
2021/07/15 23:09:17;;;;;;;5.25;0.60;;;;;;;16.44;83.47;96203.00;5159411;57;20125;-72
2021/07/15 23:14:19;;;;;;;0.43;0.40;;;;;;;16.51;83.16;96210.88;5159310;57;20612;-71
2021/07/15 23:19:21;;;;;;;1.00;0.52;;;;;;;16.47;83.95;96207.56;5159393;57;20612;-71
2021/07/15 23:24:24;;;;;;;0.55;0.55;;;;;;;16.51;83.44;96199.00;5159442;57;20134;-71
2021/07/15 23:29:26;;;;;;;0.40;0.40;;;;;;;16.40;83.86;96199.69;5159533;57;20125;-71
2021/07/15 23:34:28;;;;;;;0.43;0.40;;;;;;;16.47;84.38;96207.56;5159174;57;20134;-70
2021/07/15 23:39:31;;;;;;;0.60;0.60;;;;;;;16.58;83.84;96202.03;5159775;57;20616;-71
2021/07/15 23:44:34;;;;;;;0.70;0.70;;;;;;;16.54;83.70;96209.13;5159533;57;20118;-72
2021/07/15 23:49:36;;;;;;;1.50;0.70;;;;;;;16.61;84.11;96206.59;5158932;57;20121;-71
2021/07/15 23:54:39;;;;;;;0.55;0.40;;;;;;;16.70;83.84;96206.38;5159213;57;20117;-72
2021/07/15 23:59:41;;;;;;;0.60;0.60;;;;;;;16.75;83.39;96204.84;5158573;57;20120;-72
